Time;durP1;ratioP1;P1;durP2;ratioP2;P2;SDS_P1;SDS_P2;PMS_P1;PMS_P2;Temp;Humidity;BMP_temperature;BMP_pressure;BME280_temperature;BME280_humidity;BME280_pressure;Samples;Min_cycle;Max_cycle;Signal;HPM_P1;HPM_P2
2023/01/07 06:27:32;;;;;;;1.30;1.10;;;17.50;48.60;;;;;;5783042;23;20236;-87
2023/01/07 06:30:00;;;;;;;1.27;0.90;;;17.50;48.80;;;;;;4936858;29;20228;-87
2023/01/07 06:32:40;;;;;;;2.38;0.93;;;17.50;48.90;;;;;;4924338;29;20742;-85
2023/01/07 06:35:12;;;;;;;1.40;0.90;;;17.50;48.90;;;;;;4918005;29;20272;-85
2023/01/07 06:37:41;;;;;;;0.82;0.82;;;17.50;48.90;;;;;;4893036;29;20250;-86
2023/01/07 06:40:10;;;;;;;1.20;1.10;;;17.50;48.90;;;;;;4908318;29;20636;-86
2023/01/07 06:42:49;;;;;;;0.82;0.82;;;17.50;48.70;;;;;;4908555;29;20219;-86
2023/01/07 06:45:43;;;;;;;1.13;0.85;;;17.50;48.70;;;;;;4892669;29;20183;-87
2023/01/07 06:51:32;;;;;;;0.95;0.73;;;17.50;48.80;;;;;;4908816;29;20174;-87
2023/01/07 06:54:14;;;;;;;1.30;0.90;;;17.60;48.60;;;;;;4915277;29;20265;-87
2023/01/07 06:57:07;;;;;;;;;;;;;;;;;;;;;
2023/01/07 07:24:23;;;;;;;1.50;1.00;;;17.70;48.20;;;;;;4847119;29;20240;-87
2023/01/07 07:26:58;;;;;;;0.80;0.80;;;17.80;48.20;;;;;;4793419;29;20214;-85
2023/01/07 07:29:38;;;;;;;1.98;1.00;;;17.80;48.20;;;;;;4795018;29;20251;-85
2023/01/07 07:33:01;;;;;;;0.95;0.88;;;17.80;48.20;;;;;;4797352;30;20192;-85
2023/01/07 07:35:29;;;;;;;1.80;0.90;;;17.80;48.10;;;;;;4780851;30;20192;-83
2023/01/07 07:37:58;;;;;;;0.90;0.70;;;17.90;49.10;;;;;;4753459;30;20661;-85
2023/01/07 07:40:24;;;;;;;0.60;0.60;;;17.90;48.90;;;;;;4755207;30;20188;-85
2023/01/07 07:42:50;;;;;;;1.00;0.90;;;17.80;48.30;;;;;;4754022;30;20196;-84
2023/01/07 07:45:18;;;;;;;1.23;0.90;;;17.90;48.10;;;;;;4750184;30;20205;-83
2023/01/07 07:47:47;;;;;;;0.80;0.60;;;17.90;48.10;;;;;;4735808;30;20199;-84
2023/01/07 07:50:33;;;;;;;1.10;0.70;;;17.90;48.10;;;;;;4751032;30;20250;-83
2023/01/07 07:53:37;;;;;;;;;;;;;;;;;;;;;
2023/01/07 07:56:36;;;;;;;1.00;0.90;;;17.90;48.00;;;;;;4745124;30;20280;-84
2023/01/07 08:00:07;;;;;;;1.02;0.73;;;18.00;48.20;;;;;;4700333;30;20203;-83
2023/01/07 08:27:20;;;;;;;1.17;1.05;;;17.90;48.70;;;;;;4634195;30;20198;-84
2023/01/07 08:29:54;;;;;;;1.08;0.90;;;17.90;48.40;;;;;;4710396;30;20678;-84
2023/01/07 08:32:39;;;;;;;1.52;1.30;;;18.00;48.40;;;;;;4726130;30;20194;-85
2023/01/07 08:35:14;;;;;;;1.70;1.08;;;18.00;48.50;;;;;;4757001;30;20208;-82
2023/01/07 08:38:04;;;;;;;;;;;;;;;;;;;;;
2023/01/07 08:40:31;;;;;;;1.88;0.95;;;18.00;48.60;;;;;;4774260;30;20294;-83
2023/01/07 08:42:59;;;;;;;0.95;0.80;;;18.00;48.60;;;;;;4802945;29;20190;-84
2023/01/07 08:45:30;;;;;;;1.13;0.80;;;18.10;48.50;;;;;;4830746;29;20595;-84
2023/01/07 08:48:00;;;;;;;1.27;0.95;;;18.10;48.10;;;;;;4847068;29;20659;-84
2023/01/07 08:50:26;;;;;;;2.97;1.00;;;18.10;48.10;;;;;;4818006;29;20225;-84
2023/01/07 08:52:54;;;;;;;1.92;0.98;;;18.10;47.80;;;;;;4816350;29;20182;-84
2023/01/07 08:55:29;;;;;;;1.65;1.15;;;18.20;47.80;;;;;;4853240;29;20195;-84
2023/01/07 08:58:05;;;;;;;1.30;1.00;;;18.20;47.80;;;;;;4927332;29;20161;-85
2023/01/07 09:00:33;;;;;;;2.15;1.30;;;18.20;47.60;;;;;;4905720;29;20213;-84
2023/01/07 09:03:00;;;;;;;1.23;0.98;;;18.30;48.30;;;;;;4905499;29;20606;-85
2023/01/07 09:05:32;;;;;;;2.10;0.93;;;18.30;47.30;;;;;;4950689;28;20188;-82
2023/01/07 09:07:58;;;;;;;1.40;1.13;;;18.30;47.80;;;;;;4946783;28;20181;-83
2023/01/07 09:10:23;;;;;;;2.63;0.80;;;18.30;47.80;;;;;;4924003;28;20272;-82
2023/01/07 09:12:52;;;;;;;1.83;1.02;;;18.30;48.00;;;;;;4946878;28;20703;-84
2023/01/07 09:15:20;;;;;;;1.15;1.00;;;18.20;47.70;;;;;;4945037;28;20161;-84
2023/01/07 09:17:50;;;;;;;1.20;1.10;;;18.30;48.00;;;;;;4972483;28;20585;-84
2023/01/07 09:20:19;;;;;;;1.77;1.25;;;18.30;48.00;;;;;;4928495;28;20208;-83
2023/01/07 09:22:54;;;;;;;1.23;1.10;;;18.30;47.80;;;;;;4953810;29;20188;-81
2023/01/07 09:25:23;;;;;;;1.77;1.17;;;18.30;47.80;;;;;;4948404;28;20188;-83
2023/01/07 09:27:56;;;;;;;1.55;1.23;;;18.20;48.50;;;;;;4942666;28;20223;-82
2023/01/07 09:30:24;;;;;;;3.72;1.30;;;18.20;47.90;;;;;;4987795;28;20194;-82
2023/01/07 09:33:05;;;;;;;2.65;1.77;;;18.20;48.00;;;;;;4968122;28;20192;-85
2023/01/07 09:35:48;;;;;;;2.17;1.52;;;18.20;47.80;;;;;;4976772;28;20176;-84
2023/01/07 09:38:36;;;;;;;2.50;1.40;;;18.30;47.70;;;;;;4973396;28;20168;-84
2023/01/07 09:41:12;;;;;;;1.65;1.17;;;18.20;48.10;;;;;;4999196;28;20187;-84
2023/01/07 09:44:06;;;;;;;1.85;1.50;;;18.30;48.30;;;;;;4971273;28;20163;-84
2023/01/07 09:47:20;;;;;;;1.50;1.40;;;18.30;47.80;;;;;;4906288;29;20761;-85
2023/01/07 09:50:23;;;;;;;1.85;1.50;;;18.30;47.70;;;;;;4942592;29;20240;-85
2023/01/07 09:53:22;;;;;;;2.05;1.05;;;18.30;47.90;;;;;;4909003;29;20248;-84
2023/01/07 09:55:58;;;;;;;2.92;1.40;;;18.30;48.60;;;;;;4868230;29;20187;-84
2023/01/07 09:58:26;;;;;;;1.60;1.20;;;18.40;48.40;;;;;;4866282;29;20202;-84
2023/01/07 10:01:08;;;;;;;;;;;;;;;;;;;;;
2023/01/07 10:07:44;;;;;;;2.33;1.10;;;18.40;48.10;;;;;;4773383;30;20212;-84
2023/01/07 10:10:29;;;;;;;1.40;1.25;;;18.30;48.50;;;;;;4757279;30;20223;-84
2023/01/07 10:13:41;;;;;;;2.95;1.52;;;18.30;47.90;;;;;;4737588;30;20193;-84
2023/01/07 10:19:49;;;;;;;3.15;1.40;;;18.30;48.00;;;;;;4690354;30;20196;-84
2023/01/07 10:22:31;;;;;;;1.45;1.30;;;18.40;48.50;;;;;;4686595;30;20734;-84
2023/01/07 10:25:06;;;;;;;3.05;1.50;;;18.30;48.50;;;;;;4685621;30;20209;-84
2023/01/07 10:27:58;;;;;;;;;;;;;;;;;;;;;
2023/01/07 10:30:39;;;;;;;2.80;1.20;;;18.40;48.00;;;;;;4666557;30;20295;-83
2023/01/07 10:34:08;;;;;;;3.92;1.60;;;18.40;48.30;;;;;;4678378;30;20191;-84
2023/01/07 10:37:01;;;;;;;2.42;1.60;;;18.40;48.20;;;;;;4693546;30;20246;-83
2023/01/07 10:47:22;;;;;;;;;;;;;;;;;;;;;
2023/01/07 10:50:46;;;;;;;1.98;1.60;;;18.40;48.30;;;;;;4676673;30;20315;-85
2023/01/07 10:57:14;;;;;;;3.03;1.25;;;18.40;48.30;;;;;;4654408;30;20200;-86
2023/01/07 11:00:22;;;;;;;3.33;1.45;;;18.40;48.00;;;;;;4655099;30;20198;-85
2023/01/07 11:06:21;;;;;;;3.28;1.10;;;18.40;48.10;;;;;;4709890;30;20270;-85
2023/01/07 11:10:09;;;;;;;;;;;;;;;;;;;;;
2023/01/07 11:16:08;;;;;;;;;;;;;;;;;;;;;
2023/01/07 11:19:53;;;;;;;;;;;;;;;;;;;;;
2023/01/07 11:23:42;;;;;;;1.88;1.58;;;18.50;47.70;;;;;;4641137;31;20375;-86
2023/01/07 11:26:07;;;;;;;2.03;1.42;;;18.50;47.30;;;;;;4628092;31;20648;-85
2023/01/07 11:29:03;;;;;;;;;;;;;;;;;;;;;
2023/01/07 11:31:50;;;;;;;1.65;1.25;;;18.50;47.70;;;;;;4690921;30;20223;-85
2023/01/07 11:35:01;;;;;;;1.55;1.40;;;18.50;48.10;;;;;;4706063;30;20225;-85
2023/01/07 11:42:37;;;;;;;3.33;1.40;;;18.50;48.00;;;;;;4709133;30;20224;-85
2023/01/07 12:09:08;;;;;;;1.92;1.35;;;18.60;48.70;;;;;;5012110;28;20681;-85
2023/01/07 12:12:07;;;;;;;1.77;1.33;;;18.60;48.40;;;;;;4979130;28;20247;-85
2023/01/07 12:15:19;;;;;;;2.90;1.52;;;18.60;48.60;;;;;;4961065;28;20181;-85
2023/01/07 12:18:27;;;;;;;2.00;1.38;;;18.50;49.00;;;;;;4944152;29;20628;-85
2023/01/07 12:21:30;;;;;;;2.17;1.48;;;18.60;48.40;;;;;;4874483;29;20324;-85
2023/01/07 12:24:50;;;;;;;1.67;1.38;;;18.50;48.30;;;;;;4870636;29;20267;-86
2023/01/07 12:32:10;;;;;;;1.95;1.58;;;18.60;48.30;;;;;;4797451;30;20202;-85
2023/01/07 12:35:23;;;;;;;;;;;;;;;;;;;;;
2023/01/07 12:57:15;;;;;;;;;;;;;;;;;;;;;
2023/01/07 13:00:41;;;;;;;1.85;1.30;;;18.60;48.20;;;;;;4670979;30;20263;-86
2023/01/07 13:04:10;;;;;;;;;;;;;;;;;;;;;
2023/01/07 13:06:58;;;;;;;;;;;;;;;;;;;;;
2023/01/07 13:10:28;;;;;;;2.25;1.33;;;18.60;48.70;;;;;;4752302;30;20220;-85
2023/01/07 13:13:21;;;;;;;1.70;1.58;;;18.60;48.60;;;;;;4801613;29;20196;-83
2023/01/07 13:16:00;;;;;;;5.22;1.67;;;18.60;48.60;;;;;;4749219;30;20195;-83
2023/01/07 13:18:45;;;;;;;1.95;1.40;;;18.60;49.00;;;;;;4700262;30;20209;-83
2023/01/07 13:21:37;;;;;;;1.75;1.40;;;18.60;49.10;;;;;;4682606;30;20202;-83
2023/01/07 13:24:32;;;;;;;;;;;;;;;;;;;;;
2023/01/07 13:27:15;;;;;;;5.95;1.30;;;18.60;49.20;;;;;;4723513;30;20218;-83
2023/01/07 13:30:37;;;;;;;;;;;;;;;;;;;;;
2023/01/07 13:33:43;;;;;;;2.25;1.40;;;18.60;49.40;;;;;;4695895;30;20283;-84
2023/01/07 13:36:51;;;;;;;1.35;1.25;;;18.60;49.20;;;;;;4729042;30;20199;-83
2023/01/07 13:40:10;;;;;;;1.35;1.25;;;18.60;49.10;;;;;;4701171;30;20617;-84
2023/01/07 13:43:12;;;;;;;3.67;1.50;;;18.50;49.40;;;;;;4712014;30;20236;-83
2023/01/07 13:45:38;;;;;;;2.45;1.50;;;18.60;49.10;;;;;;4749461;30;20195;-84
2023/01/07 13:48:27;;;;;;;1.38;1.27;;;18.60;48.90;;;;;;4761976;29;20192;-84
2023/01/07 13:51:05;;;;;;;2.00;1.42;;;18.60;49.40;;;;;;4820879;29;20265;-83
2023/01/07 13:53:48;;;;;;;2.00;1.70;;;18.60;48.80;;;;;;4819566;29;20203;-84
2023/01/07 14:00:28;;;;;;;2.90;1.50;;;18.70;48.70;;;;;;4908407;29;20240;-84
2023/01/07 14:03:32;;;;;;;2.88;1.63;;;18.60;48.90;;;;;;4898147;29;20190;-83
2023/01/07 14:06:38;;;;;;;2.28;1.65;;;18.70;49.50;;;;;;4946874;29;20377;-82
2023/01/07 14:09:12;;;;;;;3.03;1.40;;;18.70;49.20;;;;;;4936383;29;20229;-82
2023/01/07 14:15:00;;;;;;;4.80;1.88;;;18.60;50.10;;;;;;4929811;29;20238;-85
2023/01/07 14:17:55;;;;;;;3.28;1.67;;;18.60;49.10;;;;;;4897163;29;20191;-84
2023/01/07 14:21:31;;;;;;;5.78;1.33;;;18.70;49.50;;;;;;4838194;29;20192;-84
2023/01/07 14:23:45;;;;;;;3.33;1.50;;;18.70;49.90;;;;;;4793556;29;20252;-84
2023/01/07 14:26:28;;;;;;;2.30;1.40;;;18.70;49.70;;;;;;4808514;29;20194;-84
2023/01/07 14:29:33;;;;;;;;;;;;;;;;;;;;;
2023/01/07 14:32:24;;;;;;;2.25;1.73;;;18.70;49.50;;;;;;4772841;30;20219;-83
2023/01/07 14:35:29;;;;;;;3.58;1.92;;;18.60;49.40;;;;;;4802770;30;20211;-83
2023/01/07 14:38:06;;;;;;;3.15;1.70;;;18.70;49.20;;;;;;4769315;30;20195;-83
2023/01/07 14:40:43;;;;;;;1.95;1.75;;;18.60;49.40;;;;;;4795204;29;20213;-82
2023/01/07 14:43:50;;;;;;;2.75;1.50;;;18.60;49.20;;;;;;4802351;30;20238;-83
2023/01/07 14:46:49;;;;;;;2.25;1.60;;;18.70;49.40;;;;;;4766619;30;20192;-84
2023/01/07 14:49:54;;;;;;;6.30;1.65;;;18.70;49.50;;;;;;4765682;30;20196;-82
2023/01/07 14:52:32;;;;;;;2.08;1.60;;;18.60;50.00;;;;;;4785756;30;20207;-83
2023/01/07 14:55:43;;;;;;;3.03;1.52;;;18.60;49.30;;;;;;4789559;30;20191;-83
2023/01/07 14:59:30;;;;;;;1.80;1.50;;;18.60;49.40;;;;;;4776164;30;20207;-84
2023/01/07 15:03:05;;;;;;;3.35;1.75;;;18.60;50.10;;;;;;4760670;30;20271;-85
2023/01/07 15:05:45;;;;;;;5.15;2.10;;;18.60;50.10;;;;;;4767473;29;20326;-84
2023/01/07 15:49:21;;;;;;;2.85;1.63;;;18.60;50.10;;;;;;4813698;29;20233;-85
2023/01/07 15:51:49;;;;;;;5.53;1.90;;;18.60;50.20;;;;;;4829042;29;20215;-86
2023/01/07 15:54:48;;;;;;;2.25;1.70;;;18.60;50.00;;;;;;4847964;29;20660;-85
2023/01/07 15:57:33;;;;;;;2.97;1.92;;;18.60;50.10;;;;;;4835134;29;20269;-86
2023/01/07 16:00:24;;;;;;;3.58;1.80;;;18.60;50.10;;;;;;4836104;29;20193;-85
2023/01/07 16:06:48;;;;;;;3.13;1.70;;;18.70;50.00;;;;;;4914130;29;20391;-85
2023/01/07 16:13:19;;;;;;;4.00;2.00;;;18.60;49.90;;;;;;4889084;29;20259;-86
2023/01/07 16:16:31;;;;;;;3.53;2.00;;;18.60;49.80;;;;;;4875406;29;20200;-86
2023/01/07 16:19:02;;;;;;;2.53;1.70;;;18.70;49.50;;;;;;4855368;29;20275;-84
2023/01/07 16:21:39;;;;;;;3.33;1.88;;;18.70;49.80;;;;;;4798226;30;20250;-86
2023/01/07 16:24:26;;;;;;;2.00;1.80;;;18.70;49.80;;;;;;4784227;30;20227;-86
2023/01/07 16:30:51;;;;;;;3.00;1.75;;;18.60;50.20;;;;;;4744107;30;20234;-87
2023/01/07 16:43:45;;;;;;;2.25;1.73;;;18.60;50.00;;;;;;4743159;30;20225;-87
2023/01/07 16:46:29;;;;;;;1.92;1.50;;;18.60;50.10;;;;;;4691283;30;20618;-84
2023/01/07 16:49:20;;;;;;;1.77;1.60;;;18.50;50.20;;;;;;4699566;30;20191;-84
2023/01/07 16:52:09;;;;;;;1.98;1.58;;;18.60;50.20;;;;;;4682795;30;20599;-84
2023/01/07 16:55:10;;;;;;;2.97;1.70;;;18.60;50.20;;;;;;4670993;30;20290;-84
2023/01/07 16:57:47;;;;;;;2.15;1.70;;;18.50;50.30;;;;;;4710244;30;20249;-84
2023/01/07 17:00:19;;;;;;;1.95;1.55;;;18.50;50.50;;;;;;4744388;30;20221;-84
2023/01/07 17:02:58;;;;;;;3.13;1.55;;;18.50;50.50;;;;;;4745897;30;20201;-84
2023/01/07 17:06:09;;;;;;;2.83;1.75;;;18.50;50.50;;;;;;4726920;30;20204;-84
2023/01/07 17:09:15;;;;;;;3.80;1.73;;;18.50;50.20;;;;;;4726420;30;20233;-85
2023/01/07 17:11:58;;;;;;;2.42;1.70;;;18.40;49.90;;;;;;4734937;30;20194;-84
2023/01/07 17:14:48;;;;;;;4.25;1.50;;;18.40;50.30;;;;;;4731659;30;20196;-84
2023/01/07 17:17:35;;;;;;;1.75;1.42;;;18.40;50.10;;;;;;4775577;30;20200;-84
2023/01/07 17:20:17;;;;;;;2.00;1.50;;;18.40;50.40;;;;;;4806841;29;20197;-85
2023/01/07 17:22:55;;;;;;;2.05;1.77;;;18.50;50.20;;;;;;4848534;29;20600;-84
2023/01/07 17:25:34;;;;;;;1.77;1.58;;;18.40;50.10;;;;;;4830391;29;20208;-84
2023/01/07 17:28:06;;;;;;;2.13;1.67;;;18.40;49.90;;;;;;4833434;29;20257;-84
2023/01/07 17:30:38;;;;;;;2.15;1.63;;;18.40;50.20;;;;;;4832763;29;20185;-84
2023/01/07 17:33:32;;;;;;;2.33;1.83;;;18.40;50.30;;;;;;4829704;29;20258;-84
2023/01/07 17:36:00;;;;;;;3.22;1.50;;;18.40;50.00;;;;;;4806236;29;20189;-84
2023/01/07 17:38:42;;;;;;;1.88;1.67;;;18.40;50.50;;;;;;4796587;29;20647;-85
2023/01/07 17:44:48;;;;;;;4.45;1.70;;;18.40;50.30;;;;;;4757447;30;20288;-85
2023/01/07 17:47:13;;;;;;;1.60;1.50;;;18.30;50.20;;;;;;4726599;30;20204;-85
2023/01/07 17:50:00;;;;;;;1.65;1.50;;;18.40;50.10;;;;;;4740701;30;20158;-85
2023/01/07 17:52:42;;;;;;;2.03;1.48;;;18.40;50.20;;;;;;4758066;30;20195;-84
2023/01/07 17:55:21;;;;;;;1.80;1.55;;;18.30;50.10;;;;;;4757985;30;20166;-85
2023/01/07 17:57:48;;;;;;;2.22;1.50;;;18.30;50.40;;;;;;4722205;30;20194;-85
2023/01/07 18:00:35;;;;;;;2.78;1.95;;;18.30;50.50;;;;;;4722790;30;20182;-85
2023/01/07 18:03:10;;;;;;;1.95;1.70;;;18.30;50.00;;;;;;4708950;30;20269;-85
2023/01/07 18:05:41;;;;;;;2.25;1.98;;;18.30;50.10;;;;;;4791684;30;20729;-84
2023/01/07 18:08:21;;;;;;;2.15;1.48;;;18.30;49.80;;;;;;4775474;30;20236;-85
2023/01/07 18:13:48;;;;;;;2.38;1.70;;;18.30;50.30;;;;;;4763851;30;20192;-84
2023/01/07 18:16:34;;;;;;;3.03;1.50;;;18.30;49.90;;;;;;4795242;29;20190;-84
2023/01/07 18:19:01;;;;;;;1.80;1.50;;;18.30;50.50;;;;;;4829197;29;20257;-84
2023/01/07 18:21:30;;;;;;;3.45;1.63;;;18.30;50.50;;;;;;4831221;29;20197;-85
2023/01/07 18:23:59;;;;;;;2.28;1.60;;;18.30;50.60;;;;;;4830968;29;20225;-84
2023/01/07 18:26:33;;;;;;;1.65;1.50;;;18.30;50.20;;;;;;4794885;30;20195;-84
2023/01/07 18:29:05;;;;;;;1.70;1.40;;;18.30;50.60;;;;;;4777614;30;20184;-84
2023/01/07 18:31:49;;;;;;;1.90;1.67;;;18.30;50.60;;;;;;4776855;30;20195;-84
2023/01/07 18:34:17;;;;;;;2.03;1.40;;;18.20;50.30;;;;;;4765170;30;20192;-84
2023/01/07 18:37:00;;;;;;;1.73;1.50;;;18.20;50.30;;;;;;4759227;30;20192;-84
2023/01/07 18:39:31;;;;;;;2.05;1.75;;;18.20;50.60;;;;;;4758970;30;20260;-84
2023/01/07 18:41:59;;;;;;;1.92;1.73;;;18.20;50.20;;;;;;4779620;30;20229;-84
2023/01/07 18:44:31;;;;;;;3.05;1.90;;;18.20;50.70;;;;;;4812600;29;20376;-84
2023/01/07 18:46:58;;;;;;;2.00;1.70;;;18.20;50.10;;;;;;4801458;29;20695;-84
2023/01/07 18:49:35;;;;;;;1.92;1.65;;;18.20;50.40;;;;;;4800912;29;20569;-84
2023/01/07 18:52:01;;;;;;;2.47;1.83;;;18.20;50.10;;;;;;4781220;30;20193;-84
2023/01/07 18:54:36;;;;;;;1.73;1.50;;;18.20;50.20;;;;;;4821268;29;20208;-84
2023/01/07 18:57:04;;;;;;;1.80;1.58;;;18.20;50.30;;;;;;4870403;29;20182;-84
2023/01/07 18:59:37;;;;;;;3.42;1.67;;;18.20;49.90;;;;;;4910432;29;20182;-84
2023/01/07 19:02:07;;;;;;;2.08;1.70;;;18.30;50.30;;;;;;4912276;29;20190;-84
2023/01/07 19:04:53;;;;;;;1.77;1.50;;;18.20;50.00;;;;;;4874769;29;20232;-84
2023/01/07 19:07:25;;;;;;;1.90;1.60;;;18.20;50.30;;;;;;4860853;29;20223;-84
2023/01/07 19:09:57;;;;;;;1.85;1.50;;;18.20;50.40;;;;;;4858151;29;20244;-84
2023/01/07 19:12:31;;;;;;;1.90;1.52;;;18.20;50.20;;;;;;4854344;29;20184;-84
2023/01/07 19:14:59;;;;;;;2.42;1.80;;;18.10;50.30;;;;;;4870320;29;20169;-84
2023/01/07 19:17:28;;;;;;;2.05;1.83;;;18.20;50.30;;;;;;4851408;29;20189;-84
2023/01/07 19:19:58;;;;;;;1.85;1.48;;;18.10;50.20;;;;;;4852219;29;20188;-84
2023/01/07 19:22:23;;;;;;;1.48;1.35;;;18.20;50.00;;;;;;4863598;29;20218;-84
2023/01/07 19:24:53;;;;;;;2.03;1.65;;;18.20;50.60;;;;;;4907383;29;20221;-84
2023/01/07 19:27:22;;;;;;;2.05;1.52;;;18.10;50.20;;;;;;4847927;29;20193;-85
2023/01/07 19:30:00;;;;;;;2.08;1.58;;;18.10;50.30;;;;;;4833762;29;20293;-84
2023/01/07 19:32:29;;;;;;;2.08;1.73;;;18.10;50.00;;;;;;4847875;29;20193;-84
2023/01/07 19:35:03;;;;;;;2.25;1.73;;;18.10;50.40;;;;;;4810994;29;20230;-84
2023/01/07 19:37:28;;;;;;;2.22;1.60;;;18.10;50.30;;;;;;4760597;30;20203;-84
2023/01/07 19:39:58;;;;;;;2.13;1.58;;;18.10;50.00;;;;;;4760327;30;20199;-84
2023/01/07 19:42:26;;;;;;;2.10;1.75;;;18.10;50.30;;;;;;4759829;30;20192;-84
2023/01/07 19:44:57;;;;;;;2.25;1.70;;;18.10;49.90;;;;;;4775289;30;20220;-84
2023/01/07 19:47:31;;;;;;;2.10;1.80;;;18.10;50.00;;;;;;4778318;29;20187;-84
2023/01/07 19:50:03;;;;;;;2.25;1.55;;;18.10;49.90;;;;;;4781378;29;20547;-84
2023/01/07 19:52:45;;;;;;;2.00;1.70;;;18.10;50.10;;;;;;4796729;29;20183;-84
2023/01/07 19:55:13;;;;;;;1.85;1.50;;;18.00;50.50;;;;;;4775991;30;20203;-84
2023/01/07 19:57:47;;;;;;;1.95;1.70;;;18.10;50.50;;;;;;4778509;29;20190;-84
2023/01/07 20:00:13;;;;;;;2.03;1.60;;;18.10;50.20;;;;;;4811252;29;20202;-85
2023/01/07 20:02:43;;;;;;;1.80;1.60;;;18.10;50.40;;;;;;4823626;29;20191;-84
2023/01/07 20:05:12;;;;;;;1.75;1.50;;;18.10;50.30;;;;;;4812316;29;20222;-84
2023/01/07 20:07:40;;;;;;;1.58;1.48;;;18.10;50.50;;;;;;4836589;29;20411;-84
2023/01/07 20:10:14;;;;;;;2.15;1.60;;;18.00;50.20;;;;;;4866456;29;20185;-84
2023/01/07 20:13:05;;;;;;;2.05;1.55;;;18.00;50.40;;;;;;4866483;29;20288;-85
2023/01/07 20:15:32;;;;;;;2.08;1.60;;;18.10;50.30;;;;;;4836995;29;20221;-84
2023/01/07 20:18:06;;;;;;;2.40;1.65;;;18.00;50.80;;;;;;4851227;29;20226;-84
2023/01/07 20:20:31;;;;;;;2.65;1.85;;;18.00;50.30;;;;;;4851755;29;20188;-84
2023/01/07 20:22:57;;;;;;;1.88;1.45;;;18.10;49.80;;;;;;4851430;29;20532;-85
2023/01/07 20:25:23;;;;;;;2.20;1.70;;;18.00;50.70;;;;;;4853381;29;20264;-84
2023/01/07 20:27:49;;;;;;;1.90;1.77;;;18.00;50.20;;;;;;4856736;29;20216;-84
2023/01/07 20:30:17;;;;;;;1.60;1.50;;;18.00;50.80;;;;;;4858868;29;20199;-84
2023/01/07 20:33:04;;;;;;;1.55;1.45;;;18.00;50.20;;;;;;4891978;29;20179;-84
2023/01/07 20:35:35;;;;;;;2.03;1.63;;;18.10;50.60;;;;;;4907898;29;20179;-84
2023/01/07 20:38:01;;;;;;;1.95;1.70;;;18.00;50.40;;;;;;4889811;29;20231;-84
2023/01/07 20:40:32;;;;;;;1.80;1.50;;;18.00;50.70;;;;;;4893644;28;20181;-84
2023/01/07 20:43:04;;;;;;;2.13;1.55;;;18.00;50.30;;;;;;4953223;28;20185;-84
2023/01/07 20:45:35;;;;;;;1.60;1.30;;;18.00;50.50;;;;;;4953731;28;20173;-85
2023/01/07 20:48:12;;;;;;;1.83;1.50;;;18.00;50.70;;;;;;4953720;28;20279;-84
2023/01/07 20:50:44;;;;;;;1.95;1.75;;;18.10;50.60;;;;;;4953539;28;20184;-84
2023/01/07 20:53:19;;;;;;;1.63;1.52;;;18.00;50.50;;;;;;4953237;28;20172;-84
2023/01/07 20:55:58;;;;;;;2.30;1.83;;;18.00;50.20;;;;;;4937019;28;20176;-85
2023/01/07 20:58:31;;;;;;;2.53;1.80;;;18.00;50.60;;;;;;4953865;28;20164;-84
2023/01/07 21:01:11;;;;;;;1.70;1.55;;;18.00;50.80;;;;;;4913914;29;20186;-84
2023/01/07 21:03:38;;;;;;;2.13;1.50;;;18.00;50.80;;;;;;4929830;29;20308;-84
2023/01/07 21:06:10;;;;;;;2.30;1.58;;;17.90;50.50;;;;;;4928803;29;20192;-84
2023/01/07 21:08:39;;;;;;;2.08;1.70;;;18.00;50.80;;;;;;4959361;29;20609;-84
2023/01/07 21:11:16;;;;;;;1.60;1.50;;;18.00;50.70;;;;;;4960512;29;20194;-84
2023/01/07 21:13:47;;;;;;;2.10;1.70;;;18.00;50.50;;;;;;4944948;29;20222;-85
2023/01/07 21:16:12;;;;;;;1.88;1.67;;;18.00;50.70;;;;;;4929126;29;20190;-84
2023/01/07 21:18:42;;;;;;;1.70;1.50;;;18.00;50.50;;;;;;4944694;29;20219;-84
2023/01/07 21:21:13;;;;;;;1.92;1.63;;;18.00;50.70;;;;;;4944861;29;20273;-84
2023/01/07 21:23:45;;;;;;;2.85;1.75;;;18.00;50.80;;;;;;4945045;29;20737;-84
2023/01/07 21:26:15;;;;;;;1.65;1.50;;;18.00;50.80;;;;;;4960220;29;20182;-84
2023/01/07 21:28:51;;;;;;;1.70;1.58;;;18.00;51.10;;;;;;4948142;29;20184;-85
2023/01/07 21:31:23;;;;;;;2.47;2.08;;;18.00;50.40;;;;;;4979076;28;20660;-84
2023/01/07 21:33:54;;;;;;;1.80;1.50;;;18.00;50.30;;;;;;4964338;29;20260;-84
2023/01/07 21:36:22;;;;;;;1.80;1.60;;;18.00;50.60;;;;;;4954584;28;20184;-84
2023/01/07 21:38:53;;;;;;;1.85;1.65;;;18.00;50.40;;;;;;4987604;28;20196;-84
2023/01/07 21:41:22;;;;;;;1.83;1.60;;;18.00;50.70;;;;;;4987517;28;20172;-84
2023/01/07 21:43:55;;;;;;;2.28;1.80;;;18.00;50.50;;;;;;4947770;29;20240;-84
2023/01/07 21:46:29;;;;;;;2.13;1.70;;;18.00;50.20;;;;;;4947939;29;20204;-84
2023/01/07 21:49:02;;;;;;;1.80;1.55;;;18.00;50.70;;;;;;4947826;29;20184;-84
2023/01/07 21:51:29;;;;;;;2.15;1.90;;;18.00;50.30;;;;;;4947136;29;20157;-84
2023/01/07 21:54:05;;;;;;;1.73;1.58;;;18.00;50.20;;;;;;4910256;29;20195;-84
2023/01/07 21:56:33;;;;;;;1.90;1.70;;;18.00;50.40;;;;;;4910595;29;20187;-84
2023/01/07 21:58:58;;;;;;;2.20;1.70;;;18.00;50.50;;;;;;4930026;29;20185;-84
2023/01/07 22:01:27;;;;;;;2.65;1.98;;;17.90;50.70;;;;;;4925680;29;20201;-84
2023/01/07 22:04:00;;;;;;;2.15;1.70;;;17.90;50.70;;;;;;4928908;29;20680;-84
2023/01/07 22:06:28;;;;;;;1.88;1.63;;;18.00;51.10;;;;;;4909958;29;20737;-84
2023/01/07 22:08:59;;;;;;;2.08;1.60;;;17.80;51.10;;;;;;4893888;29;20226;-85
2023/01/07 22:11:25;;;;;;;2.20;1.70;;;17.80;51.30;;;;;;4909748;29;20238;-84
2023/01/07 22:14:03;;;;;;;2.00;1.65;;;17.80;51.30;;;;;;4907349;29;20227;-84
2023/01/07 22:16:43;;;;;;;2.10;1.55;;;17.80;51.40;;;;;;4888234;29;20188;-84
2023/01/07 22:19:12;;;;;;;2.13;1.45;;;17.80;51.30;;;;;;4888049;29;20216;-84
2023/01/07 22:21:42;;;;;;;2.13;1.77;;;17.80;51.50;;;;;;4903662;29;20188;-84
2023/01/07 22:24:10;;;;;;;2.33;1.70;;;17.70;51.30;;;;;;4888491;29;20219;-84
2023/01/07 22:26:36;;;;;;;2.00;1.80;;;17.80;51.50;;;;;;4872255;29;20188;-85
2023/01/07 22:29:06;;;;;;;2.33;1.77;;;17.70;51.30;;;;;;4872349;29;20290;-85
2023/01/07 22:31:35;;;;;;;1.88;1.50;;;17.70;51.20;;;;;;4888259;29;20259;-85
2023/01/07 22:34:06;;;;;;;1.73;1.63;;;17.70;51.30;;;;;;4904412;29;20275;-85
2023/01/07 22:37:13;;;;;;;2.50;1.80;;;17.80;51.60;;;;;;4840664;29;20277;-85
2023/01/07 22:39:50;;;;;;;1.80;1.52;;;17.70;51.40;;;;;;4835674;29;20197;-85
2023/01/07 22:42:27;;;;;;;1.77;1.50;;;17.70;51.60;;;;;;4850699;29;20193;-85
2023/01/07 22:44:56;;;;;;;3.03;1.83;;;17.70;51.50;;;;;;4865656;29;20221;-85
2023/01/07 22:47:35;;;;;;;1.90;1.52;;;17.70;51.60;;;;;;4864862;29;20238;-85
2023/01/07 22:50:02;;;;;;;1.70;1.52;;;17.60;51.70;;;;;;4834371;29;20595;-85
2023/01/07 22:52:39;;;;;;;2.13;1.70;;;17.60;51.50;;;;;;4868427;29;20229;-85
2023/01/07 22:55:05;;;;;;;2.17;1.70;;;17.60;51.60;;;;;;4868147;29;20256;-85
2023/01/07 22:57:36;;;;;;;2.10;1.70;;;17.60;51.70;;;;;;4868693;29;20197;-85
2023/01/07 23:00:06;;;;;;;2.35;1.73;;;17.60;51.70;;;;;;4850775;29;20212;-85
2023/01/07 23:02:42;;;;;;;2.22;1.77;;;17.60;51.70;;;;;;4863232;29;20272;-85
2023/01/07 23:05:12;;;;;;;2.35;1.70;;;17.60;51.60;;;;;;4890075;29;20219;-85
2023/01/07 23:07:41;;;;;;;1.98;1.60;;;17.60;51.60;;;;;;4906003;29;20223;-85
2023/01/07 23:10:07;;;;;;;2.90;1.70;;;17.60;51.60;;;;;;4915352;29;20179;-85
2023/01/07 23:12:43;;;;;;;2.42;1.73;;;17.60;51.70;;;;;;4853175;29;20185;-85
2023/01/07 23:15:11;;;;;;;1.90;1.70;;;17.60;52.40;;;;;;4850038;29;20665;-85
2023/01/07 23:17:46;;;;;;;2.38;1.77;;;17.60;51.70;;;;;;4835758;29;20210;-85
2023/01/07 23:20:18;;;;;;;1.50;1.40;;;17.50;51.70;;;;;;4832422;29;20190;-85
2023/01/07 23:22:48;;;;;;;1.73;1.50;;;17.50;51.90;;;;;;4816071;29;20197;-84
2023/01/07 23:25:14;;;;;;;1.50;1.40;;;17.60;51.90;;;;;;4817478;29;20217;-85
2023/01/07 23:27:40;;;;;;;2.08;1.67;;;17.50;51.90;;;;;;4832097;29;20190;-85
2023/01/07 23:30:18;;;;;;;2.20;1.77;;;17.50;51.90;;;;;;4816555;29;20201;-85
2023/01/07 23:32:47;;;;;;;2.05;1.70;;;17.50;52.00;;;;;;4832418;29;20178;-85
2023/01/07 23:35:13;;;;;;;2.13;1.60;;;17.50;52.10;;;;;;4850003;29;20189;-85
2023/01/07 23:37:43;;;;;;;1.63;1.30;;;17.50;52.10;;;;;;4819454;29;20265;-85
2023/01/07 23:40:12;;;;;;;2.28;1.73;;;17.50;52.20;;;;;;4834852;29;20224;-85
2023/01/07 23:42:40;;;;;;;2.22;1.60;;;17.50;52.10;;;;;;4821975;29;20189;-85
2023/01/07 23:45:07;;;;;;;1.77;1.50;;;17.50;52.10;;;;;;4850176;29;20252;-85
2023/01/07 23:47:33;;;;;;;2.60;1.85;;;17.50;52.30;;;;;;4908655;29;20194;-85
2023/01/07 23:50:17;;;;;;;1.35;1.25;;;17.40;52.10;;;;;;4905918;29;20208;-85
2023/01/07 23:52:44;;;;;;;2.20;1.80;;;17.40;52.30;;;;;;4918477;29;20175;-85
2023/01/07 23:55:21;;;;;;;1.88;1.67;;;17.50;52.30;;;;;;4859783;29;20187;-85
2023/01/07 23:57:54;;;;;;;1.70;1.50;;;17.40;52.10;;;;;;4891115;29;20251;-85
